sensor_id;sensor_type;location;lat;lon;timestamp;P1;durP1;ratioP1;P2;durP2;ratioP2
45944;SDS011;31655;48.972;10.686;2023-08-06T00:00:21;5.13;;;4.28;;
45944;SDS011;31655;48.972;10.686;2023-08-06T00:02:47;6.07;;;4.63;;
45944;SDS011;31655;48.972;10.686;2023-08-06T00:05:13;4.38;;;3.97;;
45944;SDS011;31655;48.972;10.686;2023-08-06T00:07:42;5.28;;;4.35;;
45944;SDS011;31655;48.972;10.686;2023-08-06T00:10:08;4.90;;;4.00;;
45944;SDS011;31655;48.972;10.686;2023-08-06T00:12:36;6.05;;;5.00;;
45944;SDS011;31655;48.972;10.686;2023-08-06T05:43:28;17.90;;;8.90;;
45944;SDS011;31655;48.972;10.686;2023-08-06T05:45:55;13.88;;;8.75;;
45944;SDS011;31655;48.972;10.686;2023-08-06T10:22:34;0.40;;;0.30;;
45944;SDS011;31655;48.972;10.686;2023-08-06T10:25:08;8.15;;;1.30;;
45944;SDS011;31655;48.972;10.686;2023-08-06T10:27:41;3.70;;;0.65;;
45944;SDS011;31655;48.972;10.686;2023-08-06T10:32:55;4.20;;;0.65;;
45944;SDS011;31655;48.972;10.686;2023-08-06T10:35:45;0.70;;;0.70;;
45944;SDS011;31655;48.972;10.686;2023-08-06T10:38:15;0.77;;;0.77;;
45944;SDS011;31655;48.972;10.686;2023-08-06T10:40:47;1.25;;;0.60;;
45944;SDS011;31655;48.972;10.686;2023-08-06T10:43:33;1.77;;;0.68;;
45944;SDS011;31655;48.972;10.686;2023-08-06T10:46:01;1.45;;;1.35;;
45944;SDS011;31655;48.972;10.686;2023-08-06T10:48:38;2.92;;;1.27;;
45944;SDS011;31655;48.972;10.686;2023-08-06T10:51:09;1.30;;;1.10;;
45944;SDS011;31655;48.972;10.686;2023-08-06T10:53:36;3.13;;;0.90;;
45944;SDS011;31655;48.972;10.686;2023-08-06T10:56:02;1.55;;;1.40;;
45944;SDS011;31655;48.972;10.686;2023-08-06T10:58:40;1.13;;;0.95;;
45944;SDS011;31655;48.972;10.686;2023-08-06T11:01:06;1.30;;;1.20;;
45944;SDS011;31655;48.972;10.686;2023-08-06T11:03:34;3.80;;;1.17;;
45944;SDS011;31655;48.972;10.686;2023-08-06T11:06:00;5.55;;;1.40;;
45944;SDS011;31655;48.972;10.686;2023-08-06T11:08:29;0.82;;;0.82;;
45944;SDS011;31655;48.972;10.686;2023-08-06T11:10:55;1.75;;;1.17;;
45944;SDS011;31655;48.972;10.686;2023-08-06T11:13:33;3.30;;;1.90;;
45944;SDS011;31655;48.972;10.686;2023-08-06T11:15:59;4.07;;;1.65;;
45944;SDS011;31655;48.972;10.686;2023-08-06T11:18:25;1.02;;;0.95;;
45944;SDS011;31655;48.972;10.686;2023-08-06T11:20:51;1.40;;;1.30;;
45944;SDS011;31655;48.972;10.686;2023-08-06T11:23:19;4.47;;;1.65;;
45944;SDS011;31655;48.972;10.686;2023-08-06T11:25:45;1.30;;;1.20;;
45944;SDS011;31655;48.972;10.686;2023-08-06T11:28:11;2.28;;;2.08;;
45944;SDS011;31655;48.972;10.686;2023-08-06T11:30:37;1.65;;;1.13;;
45944;SDS011;31655;48.972;10.686;2023-08-06T11:33:06;1.30;;;1.17;;
45944;SDS011;31655;48.972;10.686;2023-08-06T11:35:33;0.70;;;0.70;;
45944;SDS011;31655;48.972;10.686;2023-08-06T11:38:00;1.23;;;1.13;;
45944;SDS011;31655;48.972;10.686;2023-08-06T11:40:26;4.57;;;1.38;;
45944;SDS011;31655;48.972;10.686;2023-08-06T11:42:52;2.78;;;1.98;;
45944;SDS011;31655;48.972;10.686;2023-08-06T11:45:21;1.35;;;1.25;;
45944;SDS011;31655;48.972;10.686;2023-08-06T11:47:49;1.20;;;1.10;;
45944;SDS011;31655;48.972;10.686;2023-08-06T11:50:24;1.58;;;1.15;;
45944;SDS011;31655;48.972;10.686;2023-08-06T11:52:52;1.50;;;1.40;;
45944;SDS011;31655;48.972;10.686;2023-08-06T11:55:19;2.35;;;2.08;;
45944;SDS011;31655;48.972;10.686;2023-08-06T11:57:48;1.65;;;1.55;;
45944;SDS011;31655;48.972;10.686;2023-08-06T12:00:14;1.13;;;1.02;;
45944;SDS011;31655;48.972;10.686;2023-08-06T12:02:44;0.80;;;0.80;;
45944;SDS011;31655;48.972;10.686;2023-08-06T12:05:14;1.95;;;1.38;;
45944;SDS011;31655;48.972;10.686;2023-08-06T12:07:42;2.03;;;1.85;;
45944;SDS011;31655;48.972;10.686;2023-08-06T12:10:08;0.90;;;0.90;;
45944;SDS011;31655;48.972;10.686;2023-08-06T12:12:34;0.80;;;0.80;;
45944;SDS011;31655;48.972;10.686;2023-08-06T12:15:00;1.48;;;1.38;;
45944;SDS011;31655;48.972;10.686;2023-08-06T12:17:27;5.25;;;1.33;;
45944;SDS011;31655;48.972;10.686;2023-08-06T12:19:53;22.17;;;3.42;;
45944;SDS011;31655;48.972;10.686;2023-08-06T17:07:13;5.93;;;1.88;;
45944;SDS011;31655;48.972;10.686;2023-08-06T17:09:42;1.70;;;1.60;;
45944;SDS011;31655;48.972;10.686;2023-08-06T17:12:09;2.65;;;1.80;;
45944;SDS011;31655;48.972;10.686;2023-08-06T17:14:37;2.25;;;1.05;;
45944;SDS011;31655;48.972;10.686;2023-08-06T17:17:03;7.47;;;2.65;;
45944;SDS011;31655;48.972;10.686;2023-08-06T17:19:29;5.03;;;1.60;;
45944;SDS011;31655;48.972;10.686;2023-08-06T17:21:55;7.43;;;1.50;;
45944;SDS011;31655;48.972;10.686;2023-08-06T17:24:22;8.90;;;1.85;;
45944;SDS011;31655;48.972;10.686;2023-08-06T17:26:50;3.55;;;1.17;;
45944;SDS011;31655;48.972;10.686;2023-08-06T17:31:49;5.18;;;2.13;;
45944;SDS011;31655;48.972;10.686;2023-08-06T17:34:21;7.28;;;2.22;;
45944;SDS011;31655;48.972;10.686;2023-08-06T17:36:49;5.30;;;1.77;;
45944;SDS011;31655;48.972;10.686;2023-08-06T17:39:15;2.67;;;1.85;;
45944;SDS011;31655;48.972;10.686;2023-08-06T17:41:41;5.50;;;1.52;;
45944;SDS011;31655;48.972;10.686;2023-08-06T17:44:13;1.73;;;1.23;;
45944;SDS011;31655;48.972;10.686;2023-08-06T17:49:17;3.63;;;2.20;;
45944;SDS011;31655;48.972;10.686;2023-08-06T17:51:44;3.58;;;1.30;;
45944;SDS011;31655;48.972;10.686;2023-08-06T17:54:10;1.55;;;1.30;;
45944;SDS011;31655;48.972;10.686;2023-08-06T17:56:40;4.15;;;1.63;;
45944;SDS011;31655;48.972;10.686;2023-08-06T17:59:07;4.90;;;1.70;;
45944;SDS011;31655;48.972;10.686;2023-08-06T18:01:33;2.95;;;2.00;;
45944;SDS011;31655;48.972;10.686;2023-08-06T18:03:59;2.55;;;2.35;;
45944;SDS011;31655;48.972;10.686;2023-08-06T18:06:25;1.50;;;1.10;;
45944;SDS011;31655;48.972;10.686;2023-08-06T18:08:58;1.42;;;1.30;;
45944;SDS011;31655;48.972;10.686;2023-08-06T18:11:33;2.83;;;1.55;;
45944;SDS011;31655;48.972;10.686;2023-08-06T18:14:00;5.22;;;1.73;;
45944;SDS011;31655;48.972;10.686;2023-08-06T18:16:27;4.55;;;1.70;;
45944;SDS011;31655;48.972;10.686;2023-08-06T18:18:53;1.60;;;1.30;;
45944;SDS011;31655;48.972;10.686;2023-08-06T18:21:25;1.85;;;1.50;;
45944;SDS011;31655;48.972;10.686;2023-08-06T18:23:50;4.95;;;1.50;;
45944;SDS011;31655;48.972;10.686;2023-08-06T18:26:27;1.58;;;1.13;;
45944;SDS011;31655;48.972;10.686;2023-08-06T18:28:53;4.50;;;1.73;;
45944;SDS011;31655;48.972;10.686;2023-08-06T18:31:20;3.05;;;1.00;;
45944;SDS011;31655;48.972;10.686;2023-08-06T18:33:49;0.88;;;0.88;;
45944;SDS011;31655;48.972;10.686;2023-08-06T18:36:17;2.13;;;1.10;;
45944;SDS011;31655;48.972;10.686;2023-08-06T20:52:55;2.30;;;1.80;;
45944;SDS011;31655;48.972;10.686;2023-08-06T21:09:03;6.20;;;2.05;;
45944;SDS011;31655;48.972;10.686;2023-08-06T21:11:31;8.18;;;4.65;;
45944;SDS011;31655;48.972;10.686;2023-08-06T21:13:57;6.13;;;3.40;;
45944;SDS011;31655;48.972;10.686;2023-08-06T21:16:26;7.03;;;3.10;;
45944;SDS011;31655;48.972;10.686;2023-08-06T21:18:52;6.97;;;2.85;;
45944;SDS011;31655;48.972;10.686;2023-08-06T21:21:18;5.05;;;3.90;;
45944;SDS011;31655;48.972;10.686;2023-08-06T21:23:44;12.10;;;8.75;;
45944;SDS011;31655;48.972;10.686;2023-08-06T21:26:10;7.35;;;5.20;;
45944;SDS011;31655;48.972;10.686;2023-08-06T21:28:36;4.25;;;3.45;;
45944;SDS011;31655;48.972;10.686;2023-08-06T21:31:04;7.50;;;4.22;;
45944;SDS011;31655;48.972;10.686;2023-08-06T21:33:32;13.50;;;8.98;;
45944;SDS011;31655;48.972;10.686;2023-08-06T21:35:59;10.00;;;4.93;;
45944;SDS011;31655;48.972;10.686;2023-08-06T21:38:28;5.53;;;3.38;;
45944;SDS011;31655;48.972;10.686;2023-08-06T21:41:00;7.88;;;6.30;;
45944;SDS011;31655;48.972;10.686;2023-08-06T21:43:29;6.53;;;4.18;;
45944;SDS011;31655;48.972;10.686;2023-08-06T21:45:55;8.10;;;4.30;;
45944;SDS011;31655;48.972;10.686;2023-08-06T21:48:20;6.65;;;4.70;;
45944;SDS011;31655;48.972;10.686;2023-08-06T21:50:48;8.40;;;5.00;;
45944;SDS011;31655;48.972;10.686;2023-08-06T21:53:14;9.40;;;4.88;;
45944;SDS011;31655;48.972;10.686;2023-08-06T21:55:40;5.85;;;4.15;;
45944;SDS011;31655;48.972;10.686;2023-08-06T21:58:06;5.95;;;4.20;;
45944;SDS011;31655;48.972;10.686;2023-08-06T22:00:32;6.47;;;3.85;;
45944;SDS011;31655;48.972;10.686;2023-08-06T22:02:59;5.07;;;4.30;;
45944;SDS011;31655;48.972;10.686;2023-08-06T22:05:25;8.35;;;3.90;;
45944;SDS011;31655;48.972;10.686;2023-08-06T22:07:51;10.73;;;5.55;;
45944;SDS011;31655;48.972;10.686;2023-08-06T22:10:17;5.25;;;3.70;;
45944;SDS011;31655;48.972;10.686;2023-08-06T22:12:43;5.28;;;4.00;;
45944;SDS011;31655;48.972;10.686;2023-08-06T22:15:09;6.43;;;3.53;;
45944;SDS011;31655;48.972;10.686;2023-08-06T22:17:35;4.97;;;3.25;;
45944;SDS011;31655;48.972;10.686;2023-08-06T22:20:01;6.00;;;4.50;;
45944;SDS011;31655;48.972;10.686;2023-08-06T22:22:27;7.57;;;4.15;;
45944;SDS011;31655;48.972;10.686;2023-08-06T22:24:53;5.65;;;3.75;;
45944;SDS011;31655;48.972;10.686;2023-08-06T22:27:19;5.63;;;3.95;;
45944;SDS011;31655;48.972;10.686;2023-08-06T22:29:46;5.55;;;3.63;;
45944;SDS011;31655;48.972;10.686;2023-08-06T22:32:12;6.32;;;4.18;;
45944;SDS011;31655;48.972;10.686;2023-08-06T22:34:38;6.22;;;4.15;;
45944;SDS011;31655;48.972;10.686;2023-08-06T22:37:04;6.05;;;4.95;;
45944;SDS011;31655;48.972;10.686;2023-08-06T22:39:30;4.68;;;2.67;;
45944;SDS011;31655;48.972;10.686;2023-08-06T22:41:56;4.85;;;3.70;;
45944;SDS011;31655;48.972;10.686;2023-08-06T22:44:22;11.23;;;4.20;;
45944;SDS011;31655;48.972;10.686;2023-08-06T22:46:48;5.63;;;3.72;;
45944;SDS011;31655;48.972;10.686;2023-08-06T22:49:14;4.30;;;3.30;;
45944;SDS011;31655;48.972;10.686;2023-08-06T22:51:41;8.38;;;4.25;;
45944;SDS011;31655;48.972;10.686;2023-08-06T22:54:07;4.40;;;3.55;;
45944;SDS011;31655;48.972;10.686;2023-08-06T22:56:33;5.95;;;3.53;;
45944;SDS011;31655;48.972;10.686;2023-08-06T22:58:59;3.97;;;3.15;;
45944;SDS011;31655;48.972;10.686;2023-08-06T23:01:25;2.47;;;2.22;;
45944;SDS011;31655;48.972;10.686;2023-08-06T23:03:51;5.43;;;3.40;;
45944;SDS011;31655;48.972;10.686;2023-08-06T23:06:17;6.30;;;4.13;;
45944;SDS011;31655;48.972;10.686;2023-08-06T23:08:43;10.05;;;3.60;;
45944;SDS011;31655;48.972;10.686;2023-08-06T23:11:09;4.18;;;3.22;;
45944;SDS011;31655;48.972;10.686;2023-08-06T23:13:35;5.38;;;3.38;;
45944;SDS011;31655;48.972;10.686;2023-08-06T23:16:01;3.50;;;2.83;;
45944;SDS011;31655;48.972;10.686;2023-08-06T23:18:27;4.38;;;2.95;;
45944;SDS011;31655;48.972;10.686;2023-08-06T23:20:53;7.28;;;3.25;;
45944;SDS011;31655;48.972;10.686;2023-08-06T23:23:19;4.53;;;2.83;;
45944;SDS011;31655;48.972;10.686;2023-08-06T23:25:45;4.22;;;2.40;;
45944;SDS011;31655;48.972;10.686;2023-08-06T23:28:11;4.47;;;3.50;;
45944;SDS011;31655;48.972;10.686;2023-08-06T23:30:38;3.10;;;2.85;;
45944;SDS011;31655;48.972;10.686;2023-08-06T23:33:10;4.63;;;2.97;;
45944;SDS011;31655;48.972;10.686;2023-08-06T23:35:36;4.70;;;3.20;;
45944;SDS011;31655;48.972;10.686;2023-08-06T23:38:02;5.30;;;2.78;;
45944;SDS011;31655;48.972;10.686;2023-08-06T23:40:28;8.02;;;3.10;;
45944;SDS011;31655;48.972;10.686;2023-08-06T23:42:54;3.05;;;2.60;;
45944;SDS011;31655;48.972;10.686;2023-08-06T23:45:20;4.82;;;3.53;;
45944;SDS011;31655;48.972;10.686;2023-08-06T23:47:46;5.00;;;3.33;;
45944;SDS011;31655;48.972;10.686;2023-08-06T23:50:11;5.28;;;2.92;;
45944;SDS011;31655;48.972;10.686;2023-08-06T23:52:37;5.55;;;3.75;;
45944;SDS011;31655;48.972;10.686;2023-08-06T23:55:05;3.20;;;2.65;;
45944;SDS011;31655;48.972;10.686;2023-08-06T23:57:30;3.42;;;2.72;;
45944;SDS011;31655;48.972;10.686;2023-08-06T23:59:56;4.10;;;3.17;;
